createdAt,value
2023-11-30T00:00:30.826Z,88.75
2023-11-30T00:02:59.074Z,88.88
2023-11-30T00:05:25.893Z,89.04
2023-11-30T00:07:54.210Z,89.12
2023-11-30T00:10:21.066Z,89.21
2023-11-30T00:12:48.876Z,89.32
2023-11-30T00:15:16.750Z,89.56
2023-11-30T00:17:44.886Z,89.61
2023-11-30T00:20:13.364Z,89.71
2023-11-30T00:22:42.959Z,89.77
2023-11-30T00:25:12.365Z,89.71
2023-11-30T00:27:40.380Z,89.73
2023-11-30T00:30:08.110Z,89.68
2023-11-30T00:32:38.416Z,89.70
2023-11-30T00:35:05.750Z,89.58
2023-11-30T00:37:36.686Z,89.73
2023-11-30T00:40:07.819Z,89.82
2023-11-30T00:42:36.209Z,89.88
2023-11-30T00:45:06.758Z,89.89
2023-11-30T00:47:34.791Z,90.09
2023-11-30T00:50:02.884Z,90.35
2023-11-30T00:52:32.098Z,90.76
2023-11-30T00:55:00.352Z,91.10
2023-11-30T00:57:27.181Z,91.47
2023-11-30T00:59:56.100Z,91.87
2023-11-30T01:02:22.940Z,92.22
2023-11-30T01:04:50.996Z,92.66
2023-11-30T01:07:17.800Z,93.09
2023-11-30T01:09:47.072Z,93.43
2023-11-30T01:12:14.122Z,93.72
2023-11-30T01:14:42.665Z,93.83
2023-11-30T01:17:11.494Z,94.01
2023-11-30T01:19:40.025Z,94.47
2023-11-30T01:22:08.143Z,94.56
2023-11-30T01:24:37.611Z,94.78
2023-11-30T01:27:05.929Z,94.89
2023-11-30T01:29:33.521Z,95.06
2023-11-30T01:32:01.337Z,95.04
2023-11-30T01:34:29.365Z,95.05
2023-11-30T01:36:57.504Z,95.16
2023-11-30T01:39:34.472Z,95.04
2023-11-30T01:42:05.607Z,95.25
2023-11-30T01:44:36.480Z,95.13
2023-11-30T01:47:08.045Z,95.34
2023-11-30T01:49:35.915Z,95.20
2023-11-30T01:52:04.578Z,95.27
2023-11-30T01:54:32.615Z,95.60
2023-11-30T01:57:00.912Z,95.44
2023-11-30T01:59:29.362Z,95.62
2023-11-30T02:01:58.229Z,95.58
2023-11-30T02:04:29.002Z,95.64
2023-11-30T02:06:59.389Z,95.81
2023-11-30T02:09:27.752Z,95.91
2023-11-30T02:11:56.462Z,96.16
2023-11-30T02:14:25.093Z,96.27
2023-11-30T02:16:53.168Z,96.41
2023-11-30T02:19:21.031Z,96.60
2023-11-30T02:21:53.225Z,96.66
2023-11-30T02:24:20.052Z,96.44
2023-11-30T02:26:47.959Z,96.41
2023-11-30T02:29:16.932Z,96.47
2023-11-30T02:31:45.065Z,96.38
2023-11-30T02:34:11.888Z,96.37
2023-11-30T02:36:42.743Z,95.92
2023-11-30T02:39:09.567Z,95.78
2023-11-30T02:41:37.526Z,95.60
2023-11-30T02:44:05.432Z,95.51
2023-11-30T02:46:34.617Z,95.63
2023-11-30T02:49:02.501Z,95.34
2023-11-30T02:51:32.838Z,95.17
2023-11-30T02:54:00.985Z,95.00
2023-11-30T02:56:29.284Z,94.87
2023-11-30T02:58:57.510Z,94.90
2023-11-30T03:01:27.830Z,94.92
2023-11-30T03:03:56.425Z,95.19
2023-11-30T03:06:24.472Z,95.17
2023-11-30T03:08:52.779Z,95.31
2023-11-30T03:11:19.587Z,95.39
2023-11-30T03:13:49.852Z,95.28
2023-11-30T03:16:24.860Z,95.32
2023-11-30T03:19:06.201Z,94.83
2023-11-30T03:21:43.582Z,94.59
2023-11-30T03:24:10.616Z,94.40
2023-11-30T03:26:39.136Z,94.15
2023-11-30T03:29:07.172Z,94.02
2023-11-30T03:31:37.635Z,94.01
2023-11-30T03:34:07.500Z,94.12
2023-11-30T03:36:35.873Z,94.24
2023-11-30T03:39:05.763Z,94.27
2023-11-30T03:41:36.354Z,94.14
2023-11-30T03:44:07.694Z,94.06
2023-11-30T03:46:37.096Z,93.82
2023-11-30T03:49:07.164Z,93.97
2023-11-30T03:51:34.977Z,93.76
2023-11-30T03:54:02.266Z,93.68
2023-11-30T03:56:33.776Z,93.77
2023-11-30T03:59:01.875Z,93.68
2023-11-30T04:01:29.949Z,93.72
2023-11-30T04:03:58.628Z,93.78
2023-11-30T04:06:28.527Z,94.06
2023-11-30T04:08:56.554Z,94.30
2023-11-30T04:11:23.345Z,94.33
2023-11-30T04:13:51.408Z,94.60
2023-11-30T04:16:19.043Z,94.82
2023-11-30T04:18:47.077Z,95.12
2023-11-30T04:21:14.872Z,95.03
2023-11-30T04:23:42.993Z,95.24
2023-11-30T04:26:09.905Z,95.22
2023-11-30T04:28:37.819Z,95.27
2023-11-30T04:31:08.662Z,95.32
2023-11-30T04:33:39.164Z,95.33
2023-11-30T04:36:07.594Z,95.62
2023-11-30T04:38:38.516Z,95.62
2023-11-30T04:41:06.996Z,95.80
2023-11-30T04:43:37.651Z,95.91
2023-11-30T04:46:07.013Z,95.92
2023-11-30T04:48:36.857Z,96.04
2023-11-30T04:51:08.088Z,96.15
2023-11-30T04:53:35.297Z,96.25
2023-11-30T04:56:04.924Z,96.31
2023-11-30T04:58:33.296Z,96.50
2023-11-30T05:01:03.671Z,96.53
2023-11-30T05:03:32.634Z,96.39
2023-11-30T05:06:01.082Z,96.38
2023-11-30T05:08:27.979Z,96.39
2023-11-30T05:10:56.188Z,96.24
2023-11-30T05:13:24.051Z,96.25
2023-11-30T05:15:52.041Z,96.25
2023-11-30T05:18:19.509Z,95.93
2023-11-30T05:20:47.905Z,95.83
2023-11-30T05:23:14.881Z,95.56
2023-11-30T05:25:43.599Z,95.56
2023-11-30T05:28:10.353Z,95.27
2023-11-30T05:30:38.584Z,95.16
2023-11-30T05:33:05.656Z,94.94
2023-11-30T05:35:36.105Z,94.77
2023-11-30T05:38:05.569Z,94.41
2023-11-30T05:40:35.067Z,94.47
2023-11-30T05:43:03.001Z,94.31
2023-11-30T05:45:31.021Z,94.21
2023-11-30T05:47:59.157Z,94.09
2023-11-30T05:50:26.342Z,94.12
2023-11-30T05:52:54.309Z,94.21
2023-11-30T05:55:24.871Z,93.83
2023-11-30T05:57:51.964Z,93.88
2023-11-30T06:00:22.266Z,93.83
2023-11-30T06:02:50.294Z,93.82
2023-11-30T06:05:17.898Z,93.81
2023-11-30T06:07:46.308Z,93.89
2023-11-30T06:10:17.667Z,94.11
2023-11-30T06:12:46.066Z,93.94
2023-11-30T06:15:13.102Z,94.08
2023-11-30T06:17:43.549Z,94.06
2023-11-30T06:20:11.877Z,94.00
2023-11-30T06:22:44.380Z,94.02
2023-11-30T06:25:11.542Z,94.08
2023-11-30T06:27:39.493Z,93.94
2023-11-30T06:30:07.255Z,93.83
2023-11-30T06:32:35.589Z,93.79
2023-11-30T06:35:05.296Z,93.91
2023-11-30T06:37:34.745Z,93.78
2023-11-30T06:40:05.302Z,93.63
2023-11-30T06:42:33.443Z,93.78
2023-11-30T06:45:02.436Z,93.53
2023-11-30T06:47:30.891Z,93.54
2023-11-30T06:49:59.193Z,93.02
2023-11-30T06:52:26.542Z,92.78
2023-11-30T06:54:54.890Z,92.29
2023-11-30T06:57:23.124Z,91.98
2023-11-30T06:59:52.816Z,91.79
2023-11-30T07:02:19.759Z,91.26
2023-11-30T07:04:48.722Z,90.86
2023-11-30T07:07:24.175Z,90.84
2023-11-30T07:10:00.275Z,90.56
2023-11-30T07:12:28.399Z,90.51
2023-11-30T07:14:59.006Z,90.28
2023-11-30T07:17:27.754Z,90.17
2023-11-30T07:19:59.038Z,90.05
2023-11-30T07:22:26.498Z,89.93
2023-11-30T07:24:54.909Z,89.66
2023-11-30T07:27:24.855Z,89.62
2023-11-30T07:29:54.956Z,89.19
2023-11-30T07:32:21.742Z,89.13
2023-11-30T07:34:52.141Z,88.93
2023-11-30T07:37:19.444Z,88.87
2023-11-30T07:39:48.947Z,88.74
2023-11-30T07:42:26.417Z,88.73
2023-11-30T07:45:03.718Z,88.38
2023-11-30T07:47:32.179Z,88.38
2023-11-30T07:49:59.190Z,88.05
2023-11-30T07:52:28.754Z,87.89
2023-11-30T07:54:57.040Z,87.75
2023-11-30T07:57:24.262Z,87.38
2023-11-30T07:59:52.643Z,87.24
2023-11-30T08:02:19.915Z,87.05
2023-11-30T08:04:48.445Z,86.54
2023-11-30T08:07:15.383Z,86.44
2023-11-30T08:09:43.441Z,85.99
2023-11-30T08:12:10.338Z,85.89
2023-11-30T08:14:38.445Z,85.34
2023-11-30T08:17:09.225Z,84.45
2023-11-30T08:19:37.219Z,83.36
2023-11-30T08:22:07.928Z,82.70
2023-11-30T08:24:36.100Z,82.16
2023-11-30T08:27:04.441Z,81.81
2023-11-30T08:29:34.922Z,81.50
2023-11-30T08:32:05.378Z,81.46
2023-11-30T08:34:33.323Z,81.62
2023-11-30T08:37:01.522Z,81.28
2023-11-30T08:39:30.299Z,81.00
2023-11-30T08:42:00.632Z,81.12
2023-11-30T08:44:28.687Z,81.13
2023-11-30T08:46:56.543Z,81.14
2023-11-30T08:49:24.021Z,81.52
2023-11-30T08:52:02.566Z,81.64
2023-11-30T08:54:32.949Z,82.00
2023-11-30T08:57:00.479Z,82.29
2023-11-30T08:59:27.657Z,82.63
2023-11-30T09:02:03.164Z,82.98
2023-11-30T09:04:31.366Z,83.25
2023-11-30T09:07:08.710Z,83.00
2023-11-30T09:09:42.008Z,82.97
2023-11-30T09:12:15.300Z,83.24
2023-11-30T09:14:42.212Z,83.23
2023-11-30T09:17:14.041Z,83.17
2023-11-30T09:19:44.300Z,83.09
2023-11-30T09:22:11.062Z,82.99
2023-11-30T09:24:41.628Z,82.51
2023-11-30T09:27:10.750Z,81.88
2023-11-30T09:29:48.289Z,81.08
2023-11-30T09:32:19.508Z,80.93
2023-11-30T09:34:48.972Z,80.93
2023-11-30T09:37:16.143Z,81.24
2023-11-30T09:39:45.180Z,81.62
2023-11-30T09:42:17.454Z,81.74
2023-11-30T09:44:46.157Z,81.98
2023-11-30T09:47:13.469Z,82.07
2023-11-30T09:49:41.519Z,82.33
2023-11-30T09:52:09.472Z,82.47
2023-11-30T09:54:45.935Z,82.62
2023-11-30T09:57:13.077Z,82.97
2023-11-30T09:59:42.824Z,83.12
2023-11-30T10:02:13.345Z,83.28
2023-11-30T10:04:44.518Z,83.59
2023-11-30T10:07:12.585Z,83.69
2023-11-30T10:09:40.068Z,83.93
2023-11-30T10:12:10.551Z,83.95
2023-11-30T10:14:47.349Z,84.44
2023-11-30T10:17:14.512Z,84.34
2023-11-30T10:19:43.223Z,84.25
2023-11-30T10:22:11.521Z,83.78
2023-11-30T10:24:39.655Z,83.09
2023-11-30T10:27:11.898Z,82.86
2023-11-30T10:29:43.390Z,82.10
2023-11-30T10:32:14.826Z,81.62
2023-11-30T10:34:50.386Z,81.20
2023-11-30T10:37:25.341Z,80.76
2023-11-30T10:39:59.686Z,80.55
2023-11-30T10:42:26.836Z,80.47
2023-11-30T10:45:05.223Z,80.27
2023-11-30T10:47:33.904Z,79.87
2023-11-30T10:50:02.782Z,79.20
2023-11-30T10:52:30.126Z,78.96
2023-11-30T10:55:11.937Z,78.84
2023-11-30T10:57:47.956Z,78.61
2023-11-30T11:00:16.863Z,78.10
2023-11-30T11:02:49.299Z,78.13
2023-11-30T11:05:20.314Z,77.80
2023-11-30T11:07:53.573Z,77.85
2023-11-30T11:10:28.349Z,77.49
2023-11-30T11:13:03.706Z,77.27
2023-11-30T11:15:33.378Z,77.30
2023-11-30T11:18:05.522Z,77.34
2023-11-30T11:20:36.362Z,77.28
2023-11-30T11:23:10.258Z,77.44
2023-11-30T11:25:48.291Z,77.25
2023-11-30T11:28:18.306Z,77.31
2023-11-30T11:30:48.947Z,76.83
2023-11-30T11:33:18.088Z,76.56
2023-11-30T11:35:47.713Z,76.60
2023-11-30T11:38:15.088Z,76.61
2023-11-30T11:40:45.615Z,76.55
2023-11-30T11:43:12.510Z,76.71
2023-11-30T11:45:45.067Z,76.56
2023-11-30T11:48:15.803Z,76.42
2023-11-30T11:50:43.905Z,76.28
2023-11-30T11:53:10.796Z,76.44
2023-11-30T11:55:38.693Z,76.64
2023-11-30T11:58:08.919Z,76.72
2023-11-30T12:00:39.090Z,76.86
2023-11-30T12:03:09.410Z,76.81
2023-11-30T12:05:54.007Z,76.35
2023-11-30T12:08:36.741Z,76.49
2023-11-30T12:11:06.161Z,76.13
2023-11-30T12:13:39.059Z,76.10
2023-11-30T12:16:08.717Z,76.32
2023-11-30T12:18:36.855Z,76.19
2023-11-30T12:21:04.876Z,76.40
2023-11-30T12:23:32.932Z,76.47
2023-11-30T12:26:00.999Z,76.76
2023-11-30T12:28:30.790Z,77.06
2023-11-30T12:31:00.982Z,77.03
2023-11-30T12:33:27.738Z,77.24
2023-11-30T12:35:59.882Z,76.96
2023-11-30T12:38:29.718Z,76.50
2023-11-30T12:40:58.387Z,76.53
2023-11-30T12:43:32.386Z,76.35
2023-11-30T12:46:00.898Z,76.11
2023-11-30T12:48:31.659Z,76.17
2023-11-30T12:50:59.842Z,76.08
2023-11-30T12:53:27.947Z,76.39
2023-11-30T12:55:57.874Z,76.13
2023-11-30T12:58:27.698Z,76.37
2023-11-30T13:00:55.360Z,76.39
2023-11-30T13:03:22.236Z,76.23
2023-11-30T13:06:00.214Z,76.30
2023-11-30T13:08:27.063Z,77.02
2023-11-30T13:10:57.989Z,77.19
2023-11-30T13:13:34.176Z,77.62
2023-11-30T13:16:09.201Z,78.33
2023-11-30T13:18:38.331Z,78.91
2023-11-30T13:21:07.817Z,79.63
2023-11-30T13:23:35.040Z,80.08
2023-11-30T13:26:01.893Z,80.60
2023-11-30T13:28:37.945Z,81.28
2023-11-30T13:31:10.498Z,82.05
2023-11-30T13:33:39.109Z,82.53
2023-11-30T13:36:10.240Z,82.86
2023-11-30T13:38:38.069Z,83.18
2023-11-30T13:41:09.438Z,83.49
2023-11-30T13:43:39.215Z,83.91
2023-11-30T13:46:07.388Z,84.43
2023-11-30T13:48:35.219Z,84.77
2023-11-30T13:51:10.619Z,85.35
2023-11-30T13:53:48.824Z,85.78
2023-11-30T13:56:19.784Z,86.13
2023-11-30T13:58:47.746Z,86.27
2023-11-30T14:01:14.884Z,86.43
2023-11-30T14:03:45.374Z,86.44
2023-11-30T14:06:13.720Z,86.69
2023-11-30T14:08:42.222Z,86.94
2023-11-30T14:11:13.399Z,86.78
2023-11-30T14:13:47.972Z,87.01
2023-11-30T14:16:16.129Z,87.13
2023-11-30T14:18:44.407Z,87.41
2023-11-30T14:21:11.396Z,87.34
2023-11-30T14:23:39.655Z,87.55
2023-11-30T14:26:07.144Z,87.84
2023-11-30T14:28:36.725Z,88.28
2023-11-30T14:31:05.141Z,88.57
2023-11-30T14:33:33.161Z,88.75
2023-11-30T14:36:01.554Z,88.88
2023-11-30T14:38:59.354Z,89.35
2023-11-30T14:41:27.802Z,89.33
2023-11-30T14:43:56.504Z,89.18
2023-11-30T14:46:25.052Z,89.08
2023-11-30T14:48:52.792Z,89.28
2023-11-30T14:51:20.820Z,89.31
2023-11-30T14:53:49.099Z,89.63
2023-11-30T14:56:19.356Z,89.58
2023-11-30T14:58:47.557Z,89.72
2023-11-30T15:01:16.144Z,89.68
2023-11-30T15:03:44.944Z,89.85
2023-11-30T15:06:15.464Z,90.00
2023-11-30T15:08:44.731Z,90.14
2023-11-30T15:11:15.296Z,90.27
2023-11-30T15:13:45.648Z,90.58
2023-11-30T15:16:15.133Z,90.53
2023-11-30T15:18:43.505Z,90.51
2023-11-30T15:21:11.805Z,90.53
2023-11-30T15:23:40.009Z,90.88
2023-11-30T15:26:08.244Z,91.01
2023-11-30T15:28:36.557Z,91.19
2023-11-30T15:31:04.985Z,91.26
2023-11-30T15:33:33.192Z,91.40
2023-11-30T15:36:09.874Z,91.56
2023-11-30T15:38:40.205Z,91.77
2023-11-30T15:41:09.894Z,92.04
2023-11-30T15:43:38.891Z,92.61
2023-11-30T15:46:09.298Z,92.85
2023-11-30T15:48:37.736Z,93.12
2023-11-30T15:51:05.129Z,93.44
2023-11-30T15:56:05.697Z,93.67
2023-11-30T15:58:33.690Z,93.51
2023-11-30T16:01:01.900Z,93.27
2023-11-30T16:03:30.521Z,93.30
2023-11-30T16:05:58.678Z,93.12
2023-11-30T16:08:28.043Z,93.20
2023-11-30T16:10:57.455Z,93.32
2023-11-30T16:13:27.500Z,93.51
2023-11-30T16:15:57.811Z,93.44
2023-11-30T16:18:28.028Z,93.43
2023-11-30T16:20:55.885Z,93.07
2023-11-30T16:23:23.216Z,93.19
2023-11-30T16:25:51.060Z,93.01
2023-11-30T16:28:20.709Z,93.02
2023-11-30T16:30:50.458Z,92.85
2023-11-30T16:33:19.733Z,92.90
2023-11-30T16:35:50.918Z,92.77
2023-11-30T16:38:20.255Z,92.87
2023-11-30T16:40:50.484Z,92.74
2023-11-30T16:43:21.052Z,93.11
2023-11-30T16:45:48.437Z,93.37
2023-11-30T16:48:26.463Z,93.60
2023-11-30T16:50:59.098Z,93.71
2023-11-30T16:53:29.809Z,93.67
2023-11-30T16:56:12.183Z,93.76
2023-11-30T16:58:39.948Z,93.85
2023-11-30T17:01:09.473Z,93.84
2023-11-30T17:03:38.076Z,93.77
2023-11-30T17:06:06.474Z,93.66
2023-11-30T17:08:37.278Z,93.91
2023-11-30T17:11:05.755Z,94.10
2023-11-30T17:13:34.027Z,94.10
2023-11-30T17:16:02.563Z,94.34
2023-11-30T17:18:35.598Z,94.33
2023-11-30T17:21:05.348Z,94.29
2023-11-30T17:23:33.927Z,94.22
2023-11-30T17:26:02.927Z,94.09
2023-11-30T17:28:32.234Z,94.02
2023-11-30T17:31:03.427Z,94.22
2023-11-30T17:33:31.782Z,94.49
2023-11-30T17:35:59.787Z,94.58
2023-11-30T17:38:30.104Z,94.51
2023-11-30T17:40:58.580Z,94.70
2023-11-30T17:43:28.869Z,94.69
2023-11-30T17:45:58.241Z,94.77
2023-11-30T17:48:28.457Z,94.88
2023-11-30T17:50:59.809Z,94.88
2023-11-30T17:53:30.349Z,94.86
2023-11-30T17:55:58.481Z,94.84
2023-11-30T17:58:30.544Z,94.75
2023-11-30T18:00:58.548Z,94.82
2023-11-30T18:03:27.933Z,94.68
2023-11-30T18:05:58.965Z,94.67
2023-11-30T18:08:34.869Z,94.54
2023-11-30T18:11:05.639Z,94.42
2023-11-30T18:13:33.433Z,94.40
2023-11-30T18:16:06.472Z,94.46
2023-11-30T18:18:35.076Z,94.42
2023-11-30T18:21:03.803Z,94.44
2023-11-30T18:23:32.046Z,94.37
2023-11-30T18:25:59.075Z,94.54
2023-11-30T18:28:25.947Z,94.57
2023-11-30T18:31:01.769Z,94.52
2023-11-30T18:33:40.058Z,94.38
2023-11-30T18:36:09.196Z,94.38
2023-11-30T18:38:44.042Z,94.34
2023-11-30T18:41:18.318Z,94.08
2023-11-30T18:43:48.635Z,94.05
2023-11-30T18:46:16.826Z,94.00
2023-11-30T18:48:44.877Z,93.75
2023-11-30T18:51:17.667Z,93.76
2023-11-30T18:53:45.924Z,93.72
2023-11-30T18:56:14.123Z,93.81
2023-11-30T18:58:45.685Z,93.65
2023-11-30T19:01:16.893Z,93.57
2023-11-30T19:03:45.030Z,93.50
2023-11-30T19:06:20.802Z,93.83
2023-11-30T19:08:50.224Z,93.82
2023-11-30T19:11:19.030Z,93.86
2023-11-30T19:13:45.860Z,93.88
2023-11-30T19:16:18.337Z,93.76
2023-11-30T19:18:46.113Z,93.85
2023-11-30T19:21:14.416Z,93.66
2023-11-30T19:23:45.094Z,93.78
2023-11-30T19:26:13.970Z,93.81
2023-11-30T19:28:44.372Z,93.94
2023-11-30T19:31:12.632Z,93.71
2023-11-30T19:33:40.893Z,93.63
2023-11-30T19:36:09.985Z,93.47
2023-11-30T19:38:37.772Z,93.47
2023-11-30T19:41:06.116Z,93.25
2023-11-30T19:43:34.249Z,93.28
2023-11-30T19:46:03.629Z,93.33
2023-11-30T19:48:35.223Z,93.59
2023-11-30T19:51:03.453Z,93.76
2023-11-30T19:53:34.538Z,93.95
2023-11-30T19:56:05.011Z,94.01
2023-11-30T19:58:42.446Z,94.13
2023-11-30T20:01:11.105Z,94.30
2023-11-30T20:03:40.072Z,94.13
2023-11-30T20:06:18.282Z,94.30
2023-11-30T20:08:46.281Z,94.24
2023-11-30T20:11:25.592Z,94.17
2023-11-30T20:13:56.469Z,94.09
2023-11-30T20:16:24.555Z,94.10
2023-11-30T20:18:52.811Z,93.83
2023-11-30T20:21:22.885Z,93.89
2023-11-30T20:23:51.296Z,93.82
2023-11-30T20:26:19.633Z,93.86
2023-11-30T20:28:48.543Z,93.83
2023-11-30T20:31:16.697Z,94.06
2023-11-30T20:33:51.653Z,94.33
2023-11-30T20:36:19.627Z,94.42
2023-11-30T20:38:47.869Z,94.36
2023-11-30T20:41:15.870Z,94.39
2023-11-30T20:43:44.590Z,94.48
2023-11-30T20:46:21.873Z,94.48
2023-11-30T20:48:50.306Z,94.48
2023-11-30T20:51:27.127Z,94.20
2023-11-30T20:53:55.856Z,94.16
2023-11-30T20:56:24.166Z,94.40
2023-11-30T20:58:52.586Z,94.55
2023-11-30T21:01:20.702Z,94.45
2023-11-30T21:03:48.837Z,94.40
2023-11-30T21:06:17.014Z,94.53
2023-11-30T21:08:47.894Z,94.51
2023-11-30T21:11:15.855Z,94.37
2023-11-30T21:13:44.006Z,94.40
2023-11-30T21:16:19.914Z,94.61
2023-11-30T21:18:51.556Z,94.43
2023-11-30T21:21:19.690Z,94.32
2023-11-30T21:23:47.977Z,94.30
2023-11-30T21:26:16.066Z,94.38
2023-11-30T21:28:42.897Z,94.37
2023-11-30T21:31:10.931Z,94.35
2023-11-30T21:33:38.039Z,94.39
2023-11-30T21:36:06.894Z,94.09
2023-11-30T21:38:36.049Z,94.25
2023-11-30T21:41:04.113Z,94.18
2023-11-30T21:43:32.265Z,93.97
2023-11-30T21:46:00.335Z,94.06
2023-11-30T21:48:28.605Z,94.22
2023-11-30T21:50:56.154Z,93.90
2023-11-30T21:53:24.118Z,93.71
2023-11-30T21:55:52.339Z,93.69
2023-11-30T21:58:28.789Z,93.54
2023-11-30T22:00:58.365Z,93.53
2023-11-30T22:03:36.367Z,93.61
2023-11-30T22:06:04.793Z,93.77
2023-11-30T22:08:34.484Z,93.65
2023-11-30T22:11:02.814Z,93.77
2023-11-30T22:13:30.784Z,93.69
2023-11-30T22:16:06.834Z,93.90
2023-11-30T22:18:39.301Z,94.11
2023-11-30T22:21:07.912Z,93.98
2023-11-30T22:23:35.653Z,93.87
2023-11-30T22:26:06.288Z,94.05
2023-11-30T22:28:34.375Z,93.79
2023-11-30T22:31:02.838Z,93.73
2023-11-30T22:33:31.100Z,93.70
2023-11-30T22:35:59.260Z,93.76
2023-11-30T22:38:31.142Z,93.82
2023-11-30T22:41:03.721Z,93.87
2023-11-30T22:43:32.049Z,94.02
2023-11-30T22:45:59.982Z,93.99
2023-11-30T22:48:29.302Z,94.12
2023-11-30T22:50:57.571Z,94.13
2023-11-30T22:53:26.632Z,93.96
2023-11-30T22:55:55.117Z,94.08
2023-11-30T22:58:24.669Z,93.91
2023-11-30T23:00:55.132Z,93.86
2023-11-30T23:03:24.034Z,93.74
2023-11-30T23:05:52.137Z,93.82
2023-11-30T23:08:20.291Z,93.74
2023-11-30T23:10:48.954Z,93.83
2023-11-30T23:13:19.436Z,93.87
2023-11-30T23:15:46.373Z,94.00
2023-11-30T23:18:15.098Z,93.72
2023-11-30T23:20:41.897Z,93.89
2023-11-30T23:23:11.006Z,93.96
2023-11-30T23:25:37.828Z,94.19
2023-11-30T23:28:06.421Z,94.24
2023-11-30T23:30:34.637Z,94.09
2023-11-30T23:33:01.684Z,94.20
2023-11-30T23:35:29.713Z,94.47
2023-11-30T23:37:59.116Z,94.52
2023-11-30T23:40:27.503Z,94.31
2023-11-30T23:42:58.701Z,94.33
2023-11-30T23:45:29.671Z,94.19
2023-11-30T23:47:57.881Z,94.09
2023-11-30T23:50:26.378Z,94.10
2023-11-30T23:52:54.449Z,93.94
2023-11-30T23:55:22.903Z,94.02
2023-11-30T23:57:49.795Z,94.06
